Station Historical Data
Daily Summary for July 22, 2012 Units:  Both    English   Metric
« Previous Day
Next Day »
Daily Weekly Monthly Yearly Custom
  High: Low: Average:
Temperature: 85.3 °F /  29.6 °C 71.3 °F /  21.8 °C 77 °F /  25 °C
Dew Point: 76.3 °F /  24.6 °C 68.9 °F /  20.5 °C 73.2 °F /  22.9 °C
Humidity: 92% 71% 88%
Wind Speed: 9.0mph /  14.5km/h - 3.1mph /  5km/h
Wind Gust: 13.0mph /  20.9km/h - -
Wind- - SSE
Pressure: 30.11 in /  1019.5 hPa 29.99 in /  1015.5 hPa -
Precipitation: 0.10 in /  2.54 mm    
Historical Graphs
 
 
Tabular Data for July 22, 2012
Time Temperature Dew Point Pressure Wind Wind Speed Wind Gust Humidity Rainfall Rate (Hourly) Conditions
00:00 75.3 °F /  24.1 °C 72.8 °F /  22.7 °C 29.99in /  1015.5hPa East 1.0mph /  1.6km/h 2.0mph /  3.2km/h 92% 0.00in /  0mm
00:05 75.4 °F /  24.1 °C 72.9 °F /  22.7 °C 29.99in /  1015.5hPa Calm   1.0mph /  1.6km/h 92% 0.00in /  0mm
00:10 75.3 °F /  24.1 °C 72.8 °F /  22.7 °C 29.99in /  1015.5hPa SE 1.0mph /  1.6km/h 2.0mph /  3.2km/h 92% 0.00in /  0mm
00:15 75.3 °F /  24.1 °C 72.8 °F /  22.7 °C 29.99in /  1015.5hPa SE 1.0mph /  1.6km/h 1.0mph /  1.6km/h 92% 0.00in /  0mm
00:20 75.2 °F /  24 °C 72.7 °F /  22.6 °C 29.99in /  1015.5hPa Calm   1.0mph /  1.6km/h 92% 0.00in /  0mm
00:25 75.2 °F /  24 °C 72.7 °F /  22.6 °C 30.00in /  1015.8hPa ESE 1.0mph /  1.6km/h 2.0mph /  3.2km/h 92% 0.00in /  0mm
00:30 75.1 °F /  23.9 °C 72.6 °F /  22.6 °C 30.00in /  1015.8hPa Calm   2.0mph /  3.2km/h 92% 0.00in /  0mm
00:35 75.1 °F /  23.9 °C 72.6 °F /  22.6 °C 30.00in /  1015.8hPa SE 3.0mph /  4.8km/h 4.0mph /  6.4km/h 92% 0.00in /  0mm
00:40 75.3 °F /  24.1 °C 72.8 °F /  22.7 °C 29.99in /  1015.5hPa ESE 4.0mph /  6.4km/h 4.0mph /  6.4km/h 92% 0.00in /  0mm
00:45 75.4 °F /  24.1 °C 72.9 °F /  22.7 °C 29.99in /  1015.5hPa SE 2.0mph /  3.2km/h 4.0mph /  6.4km/h 92% 0.00in /  0mm
00:50 75.5 °F /  24.2 °C 73.0 °F /  22.8 °C 29.99in /  1015.5hPa SE 3.0mph /  4.8km/h 4.0mph /  6.4km/h 92% 0.00in /  0mm
00:55 75.7 °F /  24.3 °C 73.2 °F /  22.9 °C 29.99in /  1015.5hPa ESE 4.0mph /  6.4km/h 4.0mph /  6.4km/h 92% 0.00in /  0mm
01:00 75.8 °F /  24.3 °C 73.3 °F /  22.9 °C 29.99in /  1015.5hPa SE 2.0mph /  3.2km/h 5.0mph /  8km/h 92% 0.00in /  0mm
01:05 75.8 °F /  24.3 °C 73.3 °F /  22.9 °C 29.99in /  1015.5hPa SE 1.0mph /  1.6km/h 2.0mph /  3.2km/h 92% 0.00in /  0mm
01:10 75.8 °F /  24.3 °C 73.3 °F /  22.9 °C 29.99in /  1015.5hPa SE 1.0mph /  1.6km/h 2.0mph /  3.2km/h 92% 0.00in /  0mm
01:16 75.7 °F /  24.3 °C 73.2 °F /  22.9 °C 29.99in /  1015.5hPa SE 1.0mph /  1.6km/h 3.0mph /  4.8km/h 92% 0.00in /  0mm
01:21 75.6 °F /  24.2 °C 73.1 °F /  22.8 °C 30.00in /  1015.8hPa SE 2.0mph /  3.2km/h 4.0mph /  6.4km/h 92% 0.00in /  0mm
01:26 75.5 °F /  24.2 °C 73.0 °F /  22.8 °C 30.00in /  1015.8hPa ESE 3.0mph /  4.8km/h 3.0mph /  4.8km/h 92% 0.00in /  0mm
01:31 75.5 °F /  24.2 °C 73.0 °F /  22.8 °C 30.00in /  1015.8hPa SE 2.0mph /  3.2km/h 3.0mph /  4.8km/h 92% 0.00in /  0mm
01:36 75.4 °F /  24.1 °C 72.9 °F /  22.7 °C 30.00in /  1015.8hPa SE 2.0mph /  3.2km/h 4.0mph /  6.4km/h 92% 0.00in /  0mm
01:41 75.3 °F /  24.1 °C 72.8 °F /  22.7 °C 30.00in /  1015.8hPa SE 2.0mph /  3.2km/h 3.0mph /  4.8km/h 92% 0.00in /  0mm
01:46 75.2 °F /  24 °C 72.7 °F /  22.6 °C 30.00in /  1015.8hPa ESE 3.0mph /  4.8km/h 3.0mph /  4.8km/h 92% 0.00in /  0mm
01:51 75.1 °F /  23.9 °C 72.6 °F /  22.6 °C 30.00in /  1015.8hPa SE 2.0mph /  3.2km/h 3.0mph /  4.8km/h 92% 0.00in /  0mm
01:56 75.0 °F /  23.9 °C 72.5 °F /  22.5 °C 30.00in /  1015.8hPa SE 3.0mph /  4.8km/h 3.0mph /  4.8km/h 92% 0.00in /  0mm
02:01 75.0 °F /  23.9 °C 72.5 °F /  22.5 °C 30.00in /  1015.8hPa SE 1.0mph /  1.6km/h 2.0mph /  3.2km/h 92% 0.00in /  0mm
02:06 75.1 °F /  23.9 °C 72.3 °F /  22.4 °C 30.00in /  1015.8hPa SE 3.0mph /  4.8km/h 3.0mph /  4.8km/h 91% 0.00in /  0mm
02:11 75.2 °F /  24 °C 72.4 °F /  22.4 °C 30.00in /  1015.8hPa SE 6.0mph /  9.7km/h 6.0mph /  9.7km/h 91% 0.00in /  0mm
02:16 75.3 °F /  24.1 °C 72.5 °F /  22.5 °C 30.00in /  1015.8hPa SE 4.0mph /  6.4km/h 5.0mph /  8km/h 91% 0.00in /  0mm
02:21 75.3 °F /  24.1 °C 72.8 °F /  22.7 °C 30.00in /  1015.8hPa SE 3.0mph /  4.8km/h 6.0mph /  9.7km/h 92% 0.00in /  0mm
02:26 75.3 °F /  24.1 °C 72.8 °F /  22.7 °C 30.00in /  1015.8hPa SE 3.0mph /  4.8km/h 5.0mph /  8km/h 92% 0.00in /  0mm
02:31 75.3 °F /  24.1 °C 72.8 °F /  22.7 °C 30.00in /  1015.8hPa SE 3.0mph /  4.8km/h 4.0mph /  6.4km/h 92% 0.00in /  0mm
02:36 75.3 °F /  24.1 °C 72.8 °F /  22.7 °C 30.00in /  1015.8hPa SE 2.0mph /  3.2km/h 3.0mph /  4.8km/h 92% 0.00in /  0mm
02:41 75.1 °F /  23.9 °C 72.6 °F /  22.6 °C 30.00in /  1015.8hPa ESE 4.0mph /  6.4km/h 5.0mph /  8km/h 92% 0.00in /  0mm
02:47 75.1 °F /  23.9 °C 72.6 °F /  22.6 °C 30.00in /  1015.8hPa SE 5.0mph /  8km/h 5.0mph /  8km/h 92% 0.00in /  0mm
02:52 75.0 °F /  23.9 °C 72.5 °F /  22.5 °C 30.00in /  1015.8hPa SE 4.0mph /  6.4km/h 6.0mph /  9.7km/h 92% 0.00in /  0mm
02:57 75.0 °F /  23.9 °C 72.5 °F /  22.5 °C 30.00in /  1015.8hPa SSE 4.0mph /  6.4km/h 4.0mph /  6.4km/h 92% 0.00in /  0mm
03:02 75.0 °F /  23.9 °C 72.5 °F /  22.5 °C 30.01in /  1016.1hPa SE 4.0mph /  6.4km/h 5.0mph /  8km/h 92% 0.00in /  0mm
03:07 75.0 °F /  23.9 °C 72.5 °F /  22.5 °C 30.01in /  1016.1hPa SE 3.0mph /  4.8km/h 5.0mph /  8km/h 92% 0.00in /  0mm
03:12 74.9 °F /  23.8 °C 72.4 °F /  22.4 °C 30.00in /  1015.8hPa South 2.0mph /  3.2km/h 3.0mph /  4.8km/h 92% 0.00in /  0mm
03:17 74.8 °F /  23.8 °C 72.3 °F /  22.4 °C 30.00in /  1015.8hPa SSE 2.0mph /  3.2km/h 3.0mph /  4.8km/h 92% 0.00in /  0mm
03:22 74.6 °F /  23.7 °C 72.1 °F /  22.3 °C 30.00in /  1015.8hPa SE 2.0mph /  3.2km/h 3.0mph /  4.8km/h 92% 0.00in /  0mm
03:27 74.5 °F /  23.6 °C 72.0 °F /  22.2 °C 30.00in /  1015.8hPa SE 2.0mph /  3.2km/h 3.0mph /  4.8km/h 92% 0.00in /  0mm
03:32 74.3 °F /  23.5 °C 71.8 °F /  22.1 °C 30.01in /  1016.1hPa SE 3.0mph /  4.8km/h 4.0mph /  6.4km/h 92% 0.00in /  0mm
03:37 74.3 °F /  23.5 °C 71.8 °F /  22.1 °C 30.01in /  1016.1hPa SSE 3.0mph /  4.8km/h 3.0mph /  4.8km/h 92% 0.00in /  0mm
03:42 74.2 °F /  23.4 °C 71.7 °F /  22.1 °C 30.01in /  1016.1hPa SE 3.0mph /  4.8km/h 5.0mph /  8km/h 92% 0.00in /  0mm
03:47 74.1 °F /  23.4 °C 71.6 °F /  22 °C 30.01in /  1016.1hPa SE 5.0mph /  8km/h 5.0mph /  8km/h 92% 0.00in /  0mm
03:52 74.1 °F /  23.4 °C 71.6 °F /  22 °C 30.01in /  1016.1hPa SE 3.0mph /  4.8km/h 5.0mph /  8km/h 92% 0.00in /  0mm
03:57 74.1 °F /  23.4 °C 71.6 °F /  22 °C 30.01in /  1016.1hPa SE 5.0mph /  8km/h 5.0mph /  8km/h 92% 0.00in /  0mm
04:02 74.0 °F /  23.3 °C 71.5 °F /  21.9 °C 30.01in /  1016.1hPa SSE 3.0mph /  4.8km/h 4.0mph /  6.4km/h 92% 0.00in /  0mm
04:07 74.0 °F /  23.3 °C 71.5 °F /  21.9 °C 30.01in /  1016.1hPa SSE 3.0mph /  4.8km/h 4.0mph /  6.4km/h 92% 0.00in /  0mm
04:12 73.9 °F /  23.3 °C 71.4 °F /  21.9 °C 30.01in /  1016.1hPa SE 2.0mph /  3.2km/h 3.0mph /  4.8km/h 92% 0.00in /  0mm
04:17 73.9 °F /  23.3 °C 71.4 °F /  21.9 °C 30.01in /  1016.1hPa SE 2.0mph /  3.2km/h 4.0mph /  6.4km/h 92% 0.00in /  0mm
04:22 73.8 °F /  23.2 °C 71.3 °F /  21.8 °C 30.01in /  1016.1hPa SE 2.0mph /  3.2km/h 2.0mph /  3.2km/h 92% 0.00in /  0mm
04:27 73.8 °F /  23.2 °C 71.3 °F /  21.8 °C 30.01in /  1016.1hPa SE 2.0mph /  3.2km/h 3.0mph /  4.8km/h 92% 0.00in /  0mm
04:32 73.7 °F /  23.2 °C 71.2 °F /  21.8 °C 30.02in /  1016.5hPa SE 2.0mph /  3.2km/h 3.0mph /  4.8km/h 92% 0.00in /  0mm
04:37 73.6 °F /  23.1 °C 71.1 °F /  21.7 °C 30.01in /  1016.1hPa SE 3.0mph /  4.8km/h 3.0mph /  4.8km/h 92% 0.00in /  0mm
04:43 73.6 °F /  23.1 °C 71.1 °F /  21.7 °C 30.01in /  1016.1hPa SE 2.0mph /  3.2km/h 3.0mph /  4.8km/h 92% 0.00in /  0mm
04:48 73.6 °F /  23.1 °C 71.1 °F /  21.7 °C 30.01in /  1016.1hPa SE 3.0mph /  4.8km/h 3.0mph /  4.8km/h 92% 0.00in /  0mm
04:53 73.5 °F /  23.1 °C 71.0 °F /  21.7 °C 30.01in /  1016.1hPa SE 3.0mph /  4.8km/h 3.0mph /  4.8km/h 92% 0.00in /  0mm
04:58 73.4 °F /  23 °C 70.9 °F /  21.6 °C 30.01in /  1016.1hPa ESE 2.0mph /  3.2km/h 2.0mph /  3.2km/h 92% 0.00in /  0mm
05:03 73.3 °F /  22.9 °C 70.8 °F /  21.6 °C 30.01in /  1016.1hPa SE 1.0mph /  1.6km/h 2.0mph /  3.2km/h 92% 0.00in /  0mm
05:08 73.2 °F /  22.9 °C 70.7 °F /  21.5 °C 30.01in /  1016.1hPa SE 2.0mph /  3.2km/h 2.0mph /  3.2km/h 92% 0.00in /  0mm
05:13 73.1 °F /  22.8 °C 70.6 °F /  21.4 °C 30.01in /  1016.1hPa SE 2.0mph /  3.2km/h 3.0mph /  4.8km/h 92% 0.00in /  0mm
05:18 73.0 °F /  22.8 °C 70.5 °F /  21.4 °C 30.01in /  1016.1hPa ESE 2.0mph /  3.2km/h 3.0mph /  4.8km/h 92% 0.00in /  0mm
05:23 73.0 °F /  22.8 °C 70.5 °F /  21.4 °C 30.01in /  1016.1hPa ESE 3.0mph /  4.8km/h 3.0mph /  4.8km/h 92% 0.00in /  0mm
05:28 72.9 °F /  22.7 °C 70.4 °F /  21.3 °C 30.01in /  1016.1hPa ESE 2.0mph /  3.2km/h 3.0mph /  4.8km/h 92% 0.00in /  0mm
05:33 72.8 °F /  22.7 °C 70.3 °F /  21.3 °C 30.02in /  1016.5hPa ESE 1.0mph /  1.6km/h 2.0mph /  3.2km/h 92% 0.00in /  0mm
05:38 72.6 °F /  22.6 °C 70.2 °F /  21.2 °C 30.02in /  1016.5hPa ESE 1.0mph /  1.6km/h 2.0mph /  3.2km/h 92% 0.00in /  0mm
05:43 72.5 °F /  22.5 °C 70.1 °F /  21.2 °C 30.02in /  1016.5hPa ESE 2.0mph /  3.2km/h 2.0mph /  3.2km/h 92% 0.00in /  0mm
05:48 72.4 °F /  22.4 °C 69.9 °F /  21.1 °C 30.02in /  1016.5hPa ESE 2.0mph /  3.2km/h 2.0mph /  3.2km/h 92% 0.00in /  0mm
05:53 72.3 °F /  22.4 °C 69.8 °F /  21 °C 30.02in /  1016.5hPa ESE 2.0mph /  3.2km/h 2.0mph /  3.2km/h 92% 0.00in /  0mm
05:58 72.3 °F /  22.4 °C 69.8 °F /  21 °C 30.03in /  1016.8hPa ESE 2.0mph /  3.2km/h 2.0mph /  3.2km/h 92% 0.00in /  0mm
06:03 72.1 °F /  22.3 °C 69.7 °F /  20.9 °C 30.03in /  1016.8hPa ESE 2.0mph /  3.2km/h 3.0mph /  4.8km/h 92% 0.00in /  0mm
06:08 72.0 °F /  22.2 °C 69.6 °F /  20.9 °C 30.03in /  1016.8hPa East 1.0mph /  1.6km/h 2.0mph /  3.2km/h 92% 0.00in /  0mm
06:13 71.9 °F /  22.2 °C 69.4 °F /  20.8 °C 30.03in /  1016.8hPa East 2.0mph /  3.2km/h 2.0mph /  3.2km/h 92% 0.00in /  0mm
06:18 71.8 °F /  22.1 °C 69.3 °F /  20.7 °C 30.03in /  1016.8hPa ESE 2.0mph /  3.2km/h 3.0mph /  4.8km/h 92% 0.00in /  0mm
06:23 71.6 °F /  22 °C 69.2 °F /  20.7 °C 30.03in /  1016.8hPa ESE 2.0mph /  3.2km/h 2.0mph /  3.2km/h 92% 0.00in /  0mm
06:28 71.6 °F /  22 °C 69.2 °F /  20.7 °C 30.03in /  1016.8hPa ESE 2.0mph /  3.2km/h 2.0mph /  3.2km/h 92% 0.00in /  0mm
06:33 71.5 °F /  21.9 °C 69.1 °F /  20.6 °C 30.03in /  1016.8hPa ESE 2.0mph /  3.2km/h 3.0mph /  4.8km/h 92% 0.00in /  0mm
06:38 71.4 °F /  21.9 °C 69.0 °F /  20.6 °C 30.03in /  1016.8hPa ESE 2.0mph /  3.2km/h 3.0mph /  4.8km/h 92% 0.00in /  0mm
06:43 71.3 °F /  21.8 °C 68.9 °F /  20.5 °C 30.04in /  1017.2hPa ESE 2.0mph /  3.2km/h 2.0mph /  3.2km/h 92% 0.00in /  0mm
06:48 71.3 °F /  21.8 °C 68.9 °F /  20.5 °C 30.04in /  1017.2hPa SE 2.0mph /  3.2km/h 3.0mph /  4.8km/h 92% 0.00in /  0mm
06:53 71.3 °F /  21.8 °C 68.9 °F /  20.5 °C 30.05in /  1017.5hPa SE 2.0mph /  3.2km/h 4.0mph /  6.4km/h 92% 0.00in /  0mm
06:58 71.4 °F /  21.9 °C 69.0 °F /  20.6 °C 30.05in /  1017.5hPa SE 2.0mph /  3.2km/h 3.0mph /  4.8km/h 92% 0.00in /  0mm
07:03 71.4 °F /  21.9 °C 69.0 °F /  20.6 °C 30.05in /  1017.5hPa SE 1.0mph /  1.6km/h 3.0mph /  4.8km/h 92% 0.00in /  0mm
07:08 71.4 °F /  21.9 °C 69.0 °F /  20.6 °C 30.05in /  1017.5hPa ESE 2.0mph /  3.2km/h 3.0mph /  4.8km/h 92% 0.00in /  0mm
07:13 71.3 °F /  21.8 °C 68.9 °F /  20.5 °C 30.05in /  1017.5hPa ESE 1.0mph /  1.6km/h 2.0mph /  3.2km/h 92% 0.00in /  0mm
07:18 71.3 °F /  21.8 °C 68.9 °F /  20.5 °C 30.05in /  1017.5hPa SE 2.0mph /  3.2km/h 3.0mph /  4.8km/h 92% 0.00in /  0mm
07:23 71.4 °F /  21.9 °C 69.0 °F /  20.6 °C 30.05in /  1017.5hPa ESE 2.0mph /  3.2km/h 3.0mph /  4.8km/h 92% 0.00in /  0mm
07:28 71.4 °F /  21.9 °C 69.0 °F /  20.6 °C 30.05in /  1017.5hPa SE 2.0mph /  3.2km/h 4.0mph /  6.4km/h 92% 0.00in /  0mm
07:33 71.7 °F /  22.1 °C 69.3 °F /  20.7 °C 30.05in /  1017.5hPa SE 3.0mph /  4.8km/h 4.0mph /  6.4km/h 92% 0.00in /  0mm
07:38 72.1 °F /  22.3 °C 69.7 °F /  20.9 °C 30.05in /  1017.5hPa ESE 3.0mph /  4.8km/h 4.0mph /  6.4km/h 92% 0.00in /  0mm
07:43 72.4 °F /  22.4 °C 69.9 °F /  21.1 °C 30.05in /  1017.5hPa SE 1.0mph /  1.6km/h 4.0mph /  6.4km/h 92% 0.00in /  0mm
07:48 72.8 °F /  22.7 °C 70.3 °F /  21.3 °C 30.05in /  1017.5hPa ESE 3.0mph /  4.8km/h 4.0mph /  6.4km/h 92% 0.00in /  0mm
07:53 73.1 °F /  22.8 °C 70.6 °F /  21.4 °C 30.06in /  1017.8hPa ESE 2.0mph /  3.2km/h 5.0mph /  8km/h 92% 0.00in /  0mm
07:58 73.3 °F /  22.9 °C 70.8 °F /  21.6 °C 30.06in /  1017.8hPa SE 4.0mph /  6.4km/h 4.0mph /  6.4km/h 92% 0.00in /  0mm
08:03 73.6 °F /  23.1 °C 71.1 °F /  21.7 °C 30.06in /  1017.8hPa East 5.0mph /  8km/h 6.0mph /  9.7km/h 92% 0.00in /  0mm
08:08 73.5 °F /  23.1 °C 71.0 °F /  21.7 °C 30.06in /  1017.8hPa East 4.0mph /  6.4km/h 6.0mph /  9.7km/h 92% 0.00in /  0mm
08:13 73.4 °F /  23 °C 70.9 °F /  21.6 °C 30.06in /  1017.8hPa SE 5.0mph /  8km/h 5.0mph /  8km/h 92% 0.00in /  0mm
08:18 73.4 °F /  23 °C 70.9 °F /  21.6 °C 30.06in /  1017.8hPa ESE 5.0mph /  8km/h 6.0mph /  9.7km/h 92% 0.00in /  0mm
08:23 73.6 °F /  23.1 °C 71.1 °F /  21.7 °C 30.06in /  1017.8hPa ESE 5.0mph /  8km/h 6.0mph /  9.7km/h 92% 0.00in /  0mm
08:28 74.0 °F /  23.3 °C 71.5 °F /  21.9 °C 30.06in /  1017.8hPa SE 4.0mph /  6.4km/h 6.0mph /  9.7km/h 92% 0.00in /  0mm
08:33 74.3 °F /  23.5 °C 71.8 °F /  22.1 °C 30.06in /  1017.8hPa SE 5.0mph /  8km/h 8.0mph /  12.9km/h 92% 0.00in /  0mm
08:38 74.5 °F /  23.6 °C 72.0 °F /  22.2 °C 30.06in /  1017.8hPa SE 6.0mph /  9.7km/h 8.0mph /  12.9km/h 92% 0.00in /  0mm
08:43 74.7 °F /  23.7 °C 72.2 °F /  22.3 °C 30.06in /  1017.8hPa ESE 8.0mph /  12.9km/h 10.0mph /  16.1km/h 92% 0.00in /  0mm
08:48 75.0 °F /  23.9 °C 72.5 °F /  22.5 °C 30.06in /  1017.8hPa ESE 3.0mph /  4.8km/h 9.0mph /  14.5km/h 92% 0.00in /  0mm
08:53 75.4 °F /  24.1 °C 72.9 °F /  22.7 °C 30.06in /  1017.8hPa SE 5.0mph /  8km/h 6.0mph /  9.7km/h 92% 0.00in /  0mm
08:58 75.7 °F /  24.3 °C 72.9 °F /  22.7 °C 30.07in /  1018.2hPa ESE 7.0mph /  11.3km/h 8.0mph /  12.9km/h 91% 0.00in /  0mm
09:03 75.8 °F /  24.3 °C 73.0 °F /  22.8 °C 30.07in /  1018.2hPa SE 3.0mph /  4.8km/h 6.0mph /  9.7km/h 91% 0.00in /  0mm
09:09 76.0 °F /  24.4 °C 72.9 °F /  22.7 °C 30.07in /  1018.2hPa SSW 4.0mph /  6.4km/h 7.0mph /  11.3km/h 90% 0.00in /  0mm
09:14 75.8 °F /  24.3 °C 72.3 °F /  22.4 °C 30.07in /  1018.2hPa SE 6.0mph /  9.7km/h 8.0mph /  12.9km/h 89% 0.00in /  0mm
09:19 75.6 °F /  24.2 °C 72.5 °F /  22.5 °C 30.07in /  1018.2hPa SE 5.0mph /  8km/h 10.0mph /  16.1km/h 90% 0.00in /  0mm
09:24 75.4 °F /  24.1 °C 72.3 °F /  22.4 °C 30.07in /  1018.2hPa SE 6.0mph /  9.7km/h 8.0mph /  12.9km/h 90% 0.00in /  0mm
09:29 75.4 °F /  24.1 °C 72.6 °F /  22.6 °C 30.07in /  1018.2hPa SE 8.0mph /  12.9km/h 8.0mph /  12.9km/h 91% 0.00in /  0mm
09:34 75.5 °F /  24.2 °C 72.7 °F /  22.6 °C 30.07in /  1018.2hPa SE 4.0mph /  6.4km/h 8.0mph /  12.9km/h 91% 0.00in /  0mm
09:39 75.6 °F /  24.2 °C 72.8 °F /  22.7 °C 30.07in /  1018.2hPa ESE 5.0mph /  8km/h 7.0mph /  11.3km/h 91% 0.00in /  0mm
09:44 75.7 °F /  24.3 °C 72.9 °F /  22.7 °C 30.07in /  1018.2hPa ESE 6.0mph /  9.7km/h 10.0mph /  16.1km/h 91% 0.00in /  0mm
09:49 75.5 °F /  24.2 °C 72.4 °F /  22.4 °C 30.07in /  1018.2hPa SSE 7.0mph /  11.3km/h 8.0mph /  12.9km/h 90% 0.00in /  0mm
09:54 75.5 °F /  24.2 °C 72.4 °F /  22.4 °C 30.07in /  1018.2hPa SE 5.0mph /  8km/h 9.0mph /  14.5km/h 90% 0.00in /  0mm
09:59 75.6 °F /  24.2 °C 72.5 °F /  22.5 °C 30.07in /  1018.2hPa SE 4.0mph /  6.4km/h 8.0mph /  12.9km/h 90% 0.00in /  0mm
10:04 75.7 °F /  24.3 °C 72.6 °F /  22.6 °C 30.07in /  1018.2hPa SSE 6.0mph /  9.7km/h 8.0mph /  12.9km/h 90% 0.00in /  0mm
10:09 75.8 °F /  24.3 °C 72.7 °F /  22.6 °C 30.07in /  1018.2hPa SE 3.0mph /  4.8km/h 8.0mph /  12.9km/h 90% 0.00in /  0mm
10:14 75.9 °F /  24.4 °C 72.8 °F /  22.7 °C 30.08in /  1018.5hPa SE 6.0mph /  9.7km/h 9.0mph /  14.5km/h 90% 0.00in /  0mm
10:19 75.8 °F /  24.3 °C 72.7 °F /  22.6 °C 30.07in /  1018.2hPa SE 4.0mph /  6.4km/h 6.0mph /  9.7km/h 90% 0.00in /  0mm
10:24 76.2 °F /  24.6 °C 73.1 °F /  22.8 °C 30.07in /  1018.2hPa SW 7.0mph /  11.3km/h 8.0mph /  12.9km/h 90% 0.00in /  0mm
10:29 76.5 °F /  24.7 °C 73.0 °F /  22.8 °C 30.08in /  1018.5hPa SSE 2.0mph /  3.2km/h 7.0mph /  11.3km/h 89% 0.00in /  0mm
10:34 76.5 °F /  24.7 °C 73.0 °F /  22.8 °C 30.08in /  1018.5hPa SE 4.0mph /  6.4km/h 8.0mph /  12.9km/h 89% 0.00in /  0mm
10:39 76.2 °F /  24.6 °C 72.7 °F /  22.6 °C 30.08in /  1018.5hPa SE 4.0mph /  6.4km/h 7.0mph /  11.3km/h 89% 0.00in /  0mm
10:44 76.1 °F /  24.5 °C 72.6 °F /  22.6 °C 30.08in /  1018.5hPa SSE 4.0mph /  6.4km/h 5.0mph /  8km/h 89% 0.00in /  0mm
10:49 76.1 °F /  24.5 °C 73.0 °F /  22.8 °C 30.08in /  1018.5hPa SSE 4.0mph /  6.4km/h 5.0mph /  8km/h 90% 0.00in /  0mm
10:54 76.5 °F /  24.7 °C 73.0 °F /  22.8 °C 30.09in /  1018.8hPa SE 2.0mph /  3.2km/h 7.0mph /  11.3km/h 89% 0.00in /  0mm
10:59 76.7 °F /  24.8 °C 73.2 °F /  22.9 °C 30.09in /  1018.8hPa SE 6.0mph /  9.7km/h 9.0mph /  14.5km/h 89% 0.00in /  0mm
11:04 76.8 °F /  24.9 °C 73.3 °F /  22.9 °C 30.09in /  1018.8hPa South 6.0mph /  9.7km/h 8.0mph /  12.9km/h 89% 0.00in /  0mm
11:09 77.0 °F /  25 °C 73.5 °F /  23.1 °C 30.09in /  1018.8hPa SE 4.0mph /  6.4km/h 6.0mph /  9.7km/h 89% 0.00in /  0mm
11:14 77.1 °F /  25.1 °C 73.6 °F /  23.1 °C 30.09in /  1018.8hPa SSE 8.0mph /  12.9km/h 8.0mph /  12.9km/h 89% 0.00in /  0mm
11:19 77.1 °F /  25.1 °C 73.6 °F /  23.1 °C 30.09in /  1018.8hPa SSE 6.0mph /  9.7km/h 8.0mph /  12.9km/h 89% 0.00in /  0mm
11:24 77.2 °F /  25.1 °C 73.4 °F /  23 °C 30.09in /  1018.8hPa SSE 8.0mph /  12.9km/h 10.0mph /  16.1km/h 88% 0.00in /  0mm
11:29 77.5 °F /  25.3 °C 73.7 °F /  23.2 °C 30.09in /  1018.8hPa SW 2.0mph /  3.2km/h 7.0mph /  11.3km/h 88% 0.00in /  0mm
11:34 77.6 °F /  25.3 °C 73.8 °F /  23.2 °C 30.09in /  1018.8hPa SSE 3.0mph /  4.8km/h 6.0mph /  9.7km/h 88% 0.00in /  0mm
11:39 77.5 °F /  25.3 °C 73.7 °F /  23.2 °C 30.09in /  1018.8hPa SSE 3.0mph /  4.8km/h 7.0mph /  11.3km/h 88% 0.00in /  0mm
11:44 77.3 °F /  25.2 °C 73.5 °F /  23.1 °C 30.09in /  1018.8hPa SSE 6.0mph /  9.7km/h 7.0mph /  11.3km/h 88% 0.00in /  0mm
11:49 77.0 °F /  25 °C 73.2 °F /  22.9 °C 30.09in /  1018.8hPa SSE 5.0mph /  8km/h 8.0mph /  12.9km/h 88% 0.00in /  0mm
11:54 77.1 °F /  25.1 °C 73.3 °F /  22.9 °C 30.09in /  1018.8hPa SSE 5.0mph /  8km/h 6.0mph /  9.7km/h 88% 0.00in /  0mm
11:59 77.2 °F /  25.1 °C 74.0 °F /  23.3 °C 30.09in /  1018.8hPa SE 6.0mph /  9.7km/h 7.0mph /  11.3km/h 90% 0.00in /  0mm
12:04 77.5 °F /  25.3 °C 73.7 °F /  23.2 °C 30.09in /  1018.8hPa SSE 7.0mph /  11.3km/h 7.0mph /  11.3km/h 88% 0.00in /  0mm
12:09 77.7 °F /  25.4 °C 73.2 °F /  22.9 °C 30.10in /  1019.2hPa SE 2.0mph /  3.2km/h 7.0mph /  11.3km/h 86% 0.00in /  0mm
12:14 78.1 °F /  25.6 °C 73.9 °F /  23.3 °C 30.09in /  1018.8hPa SE 5.0mph /  8km/h 7.0mph /  11.3km/h 87% 0.00in /  0mm
12:19 78.2 °F /  25.7 °C 74.0 °F /  23.3 °C 30.09in /  1018.8hPa SE 5.0mph /  8km/h 6.0mph /  9.7km/h 87% 0.00in /  0mm
12:24 78.3 °F /  25.7 °C 74.1 °F /  23.4 °C 30.09in /  1018.8hPa SE 5.0mph /  8km/h 7.0mph /  11.3km/h 87% 0.00in /  0mm
12:29 78.2 °F /  25.7 °C 73.7 °F /  23.2 °C 30.09in /  1018.8hPa SE 5.0mph /  8km/h 8.0mph /  12.9km/h 86% 0.00in /  0mm
12:34 78.4 °F /  25.8 °C 73.9 °F /  23.3 °C 30.09in /  1018.8hPa SSE 3.0mph /  4.8km/h 8.0mph /  12.9km/h 86% 0.00in /  0mm
12:39 79.0 °F /  26.1 °C 74.5 °F /  23.6 °C 30.09in /  1018.8hPa SE 8.0mph /  12.9km/h 10.0mph /  16.1km/h 86% 0.00in /  0mm
12:45 79.3 °F /  26.3 °C 74.4 °F /  23.6 °C 30.09in /  1018.8hPa SE 6.0mph /  9.7km/h 8.0mph /  12.9km/h 85% 0.00in /  0mm
12:50 79.2 °F /  26.2 °C 74.3 °F /  23.5 °C 30.09in /  1018.8hPa SE 6.0mph /  9.7km/h 8.0mph /  12.9km/h 85% 0.00in /  0mm
12:55 79.1 °F /  26.2 °C 73.8 °F /  23.2 °C 30.09in /  1018.8hPa SSE 5.0mph /  8km/h 8.0mph /  12.9km/h 84% 0.00in /  0mm
13:00 79.2 °F /  26.2 °C 74.3 °F /  23.5 °C 30.09in /  1018.8hPa SE 3.0mph /  4.8km/h 9.0mph /  14.5km/h 85% 0.00in /  0mm
13:05 79.8 °F /  26.6 °C 73.8 °F /  23.2 °C 30.09in /  1018.8hPa SE 5.0mph /  8km/h 7.0mph /  11.3km/h 82% 0.00in /  0mm
13:10 80.0 °F /  26.7 °C 73.7 °F /  23.2 °C 30.09in /  1018.8hPa South 4.0mph /  6.4km/h 6.0mph /  9.7km/h 81% 0.00in /  0mm
13:15 79.0 °F /  26.1 °C 73.8 °F /  23.2 °C 30.09in /  1018.8hPa SSE 6.0mph /  9.7km/h 13.0mph /  20.9km/h 84% 0.00in /  0mm
13:20 77.5 °F /  25.3 °C 73.3 °F /  22.9 °C 30.09in /  1018.8hPa SSE 8.0mph /  12.9km/h 9.0mph /  14.5km/h 87% 0.00in /  0mm
13:25 77.2 °F /  25.1 °C 73.7 °F /  23.2 °C 30.09in /  1018.8hPa SSE 7.0mph /  11.3km/h 9.0mph /  14.5km/h 89% 0.00in /  0mm
13:30 77.5 °F /  25.3 °C 74.0 °F /  23.3 °C 30.09in /  1018.8hPa SE 9.0mph /  14.5km/h 10.0mph /  16.1km/h 89% 0.00in /  0mm
13:35 77.8 °F /  25.4 °C 74.0 °F /  23.3 °C 30.09in /  1018.8hPa WSW 5.0mph /  8km/h 7.0mph /  11.3km/h 88% 0.00in /  0mm
13:40 77.2 °F /  25.1 °C 73.4 °F /  23 °C 30.09in /  1018.8hPa SSW 4.0mph /  6.4km/h 8.0mph /  12.9km/h 88% 0.00in /  0mm
13:45 76.2 °F /  24.6 °C 72.7 °F /  22.6 °C 30.09in /  1018.8hPa SW 3.0mph /  4.8km/h 9.0mph /  14.5km/h 89% 0.57in /  14.48mm
13:50 75.5 °F /  24.2 °C 72.7 °F /  22.6 °C 30.09in /  1018.8hPa SW 3.0mph /  4.8km/h 5.0mph /  8km/h 91% 0.19in /  4.83mm
13:55 75.1 °F /  23.9 °C 72.6 °F /  22.6 °C 30.09in /  1018.8hPa WSW 4.0mph /  6.4km/h 6.0mph /  9.7km/h 92% 0.08in /  2.03mm
14:00 75.2 °F /  24 °C 72.7 °F /  22.6 °C 30.09in /  1018.8hPa WSW 2.0mph /  3.2km/h 6.0mph /  9.7km/h 92% 0.05in /  1.27mm
14:05 75.5 °F /  24.2 °C 73.0 °F /  22.8 °C 30.09in /  1018.8hPa WSW 3.0mph /  4.8km/h 6.0mph /  9.7km/h 92% 0.00in /  0mm
14:10 76.1 °F /  24.5 °C 73.6 °F /  23.1 °C 30.08in /  1018.5hPa SW 4.0mph /  6.4km/h 4.0mph /  6.4km/h 92% 0.00in /  0mm
14:15 76.3 °F /  24.6 °C 73.8 °F /  23.2 °C 30.08in /  1018.5hPa South 3.0mph /  4.8km/h 5.0mph /  8km/h 92% 0.00in /  0mm
14:20 76.8 °F /  24.9 °C 74.0 °F /  23.3 °C 30.08in /  1018.5hPa SSW 3.0mph /  4.8km/h 5.0mph /  8km/h 91% 0.00in /  0mm
14:25 77.5 °F /  25.3 °C 74.3 °F /  23.5 °C 30.08in /  1018.5hPa SSW 3.0mph /  4.8km/h 4.0mph /  6.4km/h 90% 0.00in /  0mm
14:30 78.0 °F /  25.6 °C 74.8 °F /  23.8 °C 30.08in /  1018.5hPa SW 4.0mph /  6.4km/h 5.0mph /  8km/h 90% 0.00in /  0mm
14:35 78.4 °F /  25.8 °C 74.6 °F /  23.7 °C 30.08in /  1018.5hPa SSW 6.0mph /  9.7km/h 6.0mph /  9.7km/h 88% 0.00in /  0mm
14:40 78.6 °F /  25.9 °C 74.8 °F /  23.8 °C 30.08in /  1018.5hPa SW 2.0mph /  3.2km/h 6.0mph /  9.7km/h 88% 0.00in /  0mm
14:45 78.8 °F /  26 °C 74.9 °F /  23.8 °C 30.08in /  1018.5hPa WSW 6.0mph /  9.7km/h 6.0mph /  9.7km/h 88% 0.00in /  0mm
14:50 78.9 °F /  26.1 °C 74.7 °F /  23.7 °C 30.08in /  1018.5hPa SSW 2.0mph /  3.2km/h 4.0mph /  6.4km/h 87% 0.00in /  0mm
14:55 79.5 °F /  26.4 °C 74.9 °F /  23.8 °C 30.08in /  1018.5hPa SSE 4.0mph /  6.4km/h 5.0mph /  8km/h 86% 0.00in /  0mm
15:00 79.9 °F /  26.6 °C 75.0 °F /  23.9 °C 30.08in /  1018.5hPa SSW 2.0mph /  3.2km/h 5.0mph /  8km/h 85% 0.00in /  0mm
15:05 80.4 °F /  26.9 °C 75.1 °F /  23.9 °C 30.08in /  1018.5hPa SSE 3.0mph /  4.8km/h 7.0mph /  11.3km/h 84% 0.00in /  0mm
15:10 80.8 °F /  27.1 °C 75.2 °F /  24 °C 30.07in /  1018.2hPa West 3.0mph /  4.8km/h 8.0mph /  12.9km/h 83% 0.00in /  0mm
15:15 81.2 °F /  27.3 °C 75.2 °F /  24 °C 30.08in /  1018.5hPa SE 3.0mph /  4.8km/h 8.0mph /  12.9km/h 82% 0.00in /  0mm
15:20 81.4 °F /  27.4 °C 75.4 °F /  24.1 °C 30.07in /  1018.2hPa SSE 7.0mph /  11.3km/h 7.0mph /  11.3km/h 82% 0.00in /  0mm
15:25 81.8 °F /  27.7 °C 75.4 °F /  24.1 °C 30.07in /  1018.2hPa SW 4.0mph /  6.4km/h 6.0mph /  9.7km/h 81% 0.00in /  0mm
15:30 82.0 °F /  27.8 °C 75.2 °F /  24 °C 30.07in /  1018.2hPa WSW 3.0mph /  4.8km/h 9.0mph /  14.5km/h 80% 0.00in /  0mm
15:35 82.3 °F /  27.9 °C 74.8 °F /  23.8 °C 30.07in /  1018.2hPa SW 7.0mph /  11.3km/h 8.0mph /  12.9km/h 78% 0.00in /  0mm
15:40 82.5 °F /  28.1 °C 74.9 °F /  23.8 °C 30.07in /  1018.2hPa South 4.0mph /  6.4km/h 7.0mph /  11.3km/h 78% 0.00in /  0mm
15:45 82.9 °F /  28.3 °C 75.7 °F /  24.3 °C 30.07in /  1018.2hPa SW 5.0mph /  8km/h 8.0mph /  12.9km/h 79% 0.00in /  0mm
15:50 82.8 °F /  28.2 °C 74.9 °F /  23.8 °C 30.06in /  1017.8hPa WSW 7.0mph /  11.3km/h 9.0mph /  14.5km/h 77% 0.00in /  0mm
15:55 83.1 °F /  28.4 °C 76.3 °F /  24.6 °C 30.06in /  1017.8hPa SE 2.0mph /  3.2km/h 5.0mph /  8km/h 80% 0.00in /  0mm
16:00 84.0 °F /  28.9 °C 76.0 °F /  24.4 °C 30.06in /  1017.8hPa WSW 4.0mph /  6.4km/h 5.0mph /  8km/h 77% 0.00in /  0mm
16:05 83.7 °F /  28.7 °C 74.9 °F /  23.8 °C 30.06in /  1017.8hPa SSW 4.0mph /  6.4km/h 7.0mph /  11.3km/h 75% 0.00in /  0mm
16:10 83.5 °F /  28.6 °C 74.8 °F /  23.8 °C 30.06in /  1017.8hPa South 4.0mph /  6.4km/h 6.0mph /  9.7km/h 75% 0.00in /  0mm
16:16 83.9 °F /  28.8 °C 75.1 °F /  23.9 °C 30.05in /  1017.5hPa SW 3.0mph /  4.8km/h 6.0mph /  9.7km/h 75% 0.00in /  0mm
16:21 84.1 °F /  28.9 °C 74.5 °F /  23.6 °C 30.05in /  1017.5hPa South 3.0mph /  4.8km/h 5.0mph /  8km/h 73% 0.00in /  0mm
16:26 84.6 °F /  29.2 °C 75.8 °F /  24.3 °C 30.05in /  1017.5hPa South 4.0mph /  6.4km/h 7.0mph /  11.3km/h 75% 0.00in /  0mm
16:31 84.9 °F /  29.4 °C 76.1 °F /  24.5 °C 30.05in /  1017.5hPa SSW 2.0mph /  3.2km/h 4.0mph /  6.4km/h 75% 0.00in /  0mm
16:36 85.3 °F /  29.6 °C 75.7 °F /  24.3 °C 30.05in /  1017.5hPa West 1.0mph /  1.6km/h 4.0mph /  6.4km/h 73% 0.00in /  0mm
16:41 85.1 °F /  29.5 °C 75.5 °F /  24.2 °C 30.05in /  1017.5hPa West 3.0mph /  4.8km/h 6.0mph /  9.7km/h 73% 0.00in /  0mm
16:46 84.6 °F /  29.2 °C 75.4 °F /  24.1 °C 30.05in /  1017.5hPa WSW 9.0mph /  14.5km/h 9.0mph /  14.5km/h 74% 0.00in /  0mm
16:51 84.5 °F /  29.2 °C 74.1 °F /  23.4 °C 30.05in /  1017.5hPa SSE 2.0mph /  3.2km/h 6.0mph /  9.7km/h 71% 0.00in /  0mm
16:56 84.6 °F /  29.2 °C 75.0 °F /  23.9 °C 30.06in /  1017.8hPa South 3.0mph /  4.8km/h 5.0mph /  8km/h 73% 0.00in /  0mm
17:01 84.5 °F /  29.2 °C 74.1 °F /  23.4 °C 30.05in /  1017.5hPa WSW 1.0mph /  1.6km/h 3.0mph /  4.8km/h 71% 0.00in /  0mm
17:06 84.2 °F /  29 °C 74.6 °F /  23.7 °C 30.05in /  1017.5hPa SSE 3.0mph /  4.8km/h 5.0mph /  8km/h 73% 0.00in /  0mm
17:11 83.6 °F /  28.7 °C 75.2 °F /  24 °C 30.05in /  1017.5hPa SE 5.0mph /  8km/h 7.0mph /  11.3km/h 76% 0.00in /  0mm
17:16 82.9 °F /  28.3 °C 75.3 °F /  24.1 °C 30.05in /  1017.5hPa SSW 3.0mph /  4.8km/h 5.0mph /  8km/h 78% 0.00in /  0mm
17:21 82.6 °F /  28.1 °C 75.1 °F /  23.9 °C 30.06in /  1017.8hPa South 3.0mph /  4.8km/h 4.0mph /  6.4km/h 78% 0.00in /  0mm
17:26 82.4 °F /  28 °C 75.6 °F /  24.2 °C 30.05in /  1017.5hPa SW 4.0mph /  6.4km/h 4.0mph /  6.4km/h 80% 0.00in /  0mm
17:31 82.0 °F /  27.8 °C 75.2 °F /  24 °C 30.05in /  1017.5hPa SW 4.0mph /  6.4km/h 4.0mph /  6.4km/h 80% 0.00in /  0mm
17:36 81.8 °F /  27.7 °C 75.0 °F /  23.9 °C 30.05in /  1017.5hPa SW 2.0mph /  3.2km/h 5.0mph /  8km/h 80% 0.00in /  0mm
17:41 81.7 °F /  27.6 °C 75.3 °F /  24.1 °C 30.05in /  1017.5hPa Calm   3.0mph /  4.8km/h 81% 0.00in /  0mm
17:47 81.6 °F /  27.6 °C 74.8 °F /  23.8 °C 30.05in /  1017.5hPa WSW 3.0mph /  4.8km/h 4.0mph /  6.4km/h 80% 0.00in /  0mm
17:52 81.6 °F /  27.6 °C 74.8 °F /  23.8 °C 30.05in /  1017.5hPa WSW 1.0mph /  1.6km/h 4.0mph /  6.4km/h 80% 0.00in /  0mm
17:57 81.7 °F /  27.6 °C 74.6 °F /  23.7 °C 30.06in /  1017.8hPa WSW 2.0mph /  3.2km/h 4.0mph /  6.4km/h 79% 0.00in /  0mm
18:02 81.7 °F /  27.6 °C 75.3 °F /  24.1 °C 30.05in /  1017.5hPa WSW 3.0mph /  4.8km/h 5.0mph /  8km/h 81% 0.00in /  0mm
18:07 81.5 °F /  27.5 °C 75.8 °F /  24.3 °C 30.05in /  1017.5hPa WSW 2.0mph /  3.2km/h 3.0mph /  4.8km/h 83% 0.00in /  0mm
18:12 81.2 °F /  27.3 °C 75.9 °F /  24.4 °C 30.05in /  1017.5hPa WNW 1.0mph /  1.6km/h 3.0mph /  4.8km/h 84% 0.00in /  0mm
18:17 80.7 °F /  27.1 °C 75.4 °F /  24.1 °C 30.05in /  1017.5hPa WSW 4.0mph /  6.4km/h 5.0mph /  8km/h 84% 0.00in /  0mm
18:22 80.3 °F /  26.8 °C 75.0 °F /  23.9 °C 30.05in /  1017.5hPa West 2.0mph /  3.2km/h 3.0mph /  4.8km/h 84% 0.00in /  0mm
18:27 80.1 °F /  26.7 °C 74.8 °F /  23.8 °C 30.05in /  1017.5hPa West 1.0mph /  1.6km/h 2.0mph /  3.2km/h 84% 0.00in /  0mm
18:32 79.9 °F /  26.6 °C 74.6 °F /  23.7 °C 30.05in /  1017.5hPa West 3.0mph /  4.8km/h 3.0mph /  4.8km/h 84% 0.00in /  0mm
18:37 79.9 °F /  26.6 °C 74.6 °F /  23.7 °C 30.06in /  1017.8hPa West 1.0mph /  1.6km/h 3.0mph /  4.8km/h 84% 0.00in /  0mm
18:42 79.9 °F /  26.6 °C 74.3 °F /  23.5 °C 30.05in /  1017.5hPa West 2.0mph /  3.2km/h 5.0mph /  8km/h 83% 0.00in /  0mm
18:47 79.9 °F /  26.6 °C 75.0 °F /  23.9 °C 30.05in /  1017.5hPa Calm   3.0mph /  4.8km/h 85% 0.00in /  0mm
18:52 80.1 °F /  26.7 °C 74.8 °F /  23.8 °C 30.06in /  1017.8hPa WSW 1.0mph /  1.6km/h 1.0mph /  1.6km/h 84% 0.00in /  0mm
18:57 80.1 °F /  26.7 °C 74.8 °F /  23.8 °C 30.05in /  1017.5hPa Calm   1.0mph /  1.6km/h 84% 0.00in /  0mm
19:02 80.7 °F /  27.1 °C 75.1 °F /  23.9 °C 30.05in /  1017.5hPa SW 1.0mph /  1.6km/h 1.0mph /  1.6km/h 83% 0.00in /  0mm
19:07 81.5 °F /  27.5 °C 75.8 °F /  24.3 °C 30.06in /  1017.8hPa SE 4.0mph /  6.4km/h 4.0mph /  6.4km/h 83% 0.00in /  0mm
19:12 81.7 °F /  27.6 °C 75.3 °F /  24.1 °C 30.05in /  1017.5hPa SSE 4.0mph /  6.4km/h 9.0mph /  14.5km/h 81% 0.00in /  0mm
19:17 81.8 °F /  27.7 °C 76.1 °F /  24.5 °C 30.05in /  1017.5hPa SE 4.0mph /  6.4km/h 7.0mph /  11.3km/h 83% 0.00in /  0mm
19:22 81.8 °F /  27.7 °C 75.8 °F /  24.3 °C 30.05in /  1017.5hPa SE 4.0mph /  6.4km/h 6.0mph /  9.7km/h 82% 0.00in /  0mm
19:27 82.0 °F /  27.8 °C 76.0 °F /  24.4 °C 30.05in /  1017.5hPa SSE 5.0mph /  8km/h 6.0mph /  9.7km/h 82% 0.00in /  0mm
19:32 82.0 °F /  27.8 °C 76.3 °F /  24.6 °C 30.05in /  1017.5hPa SE 4.0mph /  6.4km/h 5.0mph /  8km/h 83% 0.00in /  0mm
19:37 81.7 °F /  27.6 °C 76.0 °F /  24.4 °C 30.05in /  1017.5hPa SSE 4.0mph /  6.4km/h 5.0mph /  8km/h 83% 0.00in /  0mm
19:42 81.6 °F /  27.6 °C 75.6 °F /  24.2 °C 30.05in /  1017.5hPa SE 2.0mph /  3.2km/h 4.0mph /  6.4km/h 82% 0.00in /  0mm
19:48 81.6 °F /  27.6 °C 75.9 °F /  24.4 °C 30.05in /  1017.5hPa SSE 1.0mph /  1.6km/h 3.0mph /  4.8km/h 83% 0.00in /  0mm
19:53 81.9 °F /  27.7 °C 75.5 °F /  24.2 °C 30.05in /  1017.5hPa SE 1.0mph /  1.6km/h 3.0mph /  4.8km/h 81% 0.00in /  0mm
19:58 82.3 °F /  27.9 °C 75.5 °F /  24.2 °C 30.05in /  1017.5hPa SE 3.0mph /  4.8km/h 4.0mph /  6.4km/h 80% 0.00in /  0mm
20:03 82.2 °F /  27.9 °C 75.8 °F /  24.3 °C 30.05in /  1017.5hPa South 1.0mph /  1.6km/h 4.0mph /  6.4km/h 81% 0.00in /  0mm
20:08 81.8 °F /  27.7 °C 75.0 °F /  23.9 °C 30.06in /  1017.8hPa SSW 3.0mph /  4.8km/h 4.0mph /  6.4km/h 80% 0.00in /  0mm
20:13 81.3 °F /  27.4 °C 74.9 °F /  23.8 °C 30.06in /  1017.8hPa Calm   3.0mph /  4.8km/h 81% 0.00in /  0mm
20:18 81.0 °F /  27.2 °C 75.3 °F /  24.1 °C 30.06in /  1017.8hPa Calm   2.0mph /  3.2km/h 83% 0.00in /  0mm
20:23 80.7 °F /  27.1 °C 75.4 °F /  24.1 °C 30.06in /  1017.8hPa SW 1.0mph /  1.6km/h 1.0mph /  1.6km/h 84% 0.00in /  0mm
20:28 80.8 °F /  27.1 °C 75.5 °F /  24.2 °C 30.06in /  1017.8hPa Calm   1.0mph /  1.6km/h 84% 0.00in /  0mm
20:33 80.9 °F /  27.2 °C 76.0 °F /  24.4 °C 30.06in /  1017.8hPa Calm   1.0mph /  1.6km/h 85% 0.00in /  0mm
20:38 80.7 °F /  27.1 °C 75.4 °F /  24.1 °C 30.06in /  1017.8hPa SE 1.0mph /  1.6km/h 1.0mph /  1.6km/h 84% 0.00in /  0mm
20:43 80.4 °F /  26.9 °C 75.5 °F /  24.2 °C 30.06in /  1017.8hPa SE 1.0mph /  1.6km/h 2.0mph /  3.2km/h 85% 0.00in /  0mm
20:48 80.1 °F /  26.7 °C 75.5 °F /  24.2 °C 30.06in /  1017.8hPa SSE 1.0mph /  1.6km/h 2.0mph /  3.2km/h 86% 0.00in /  0mm
20:53 79.7 °F /  26.5 °C 75.5 °F /  24.2 °C 30.06in /  1017.8hPa Calm   2.0mph /  3.2km/h 87% 0.00in /  0mm
20:58 79.2 °F /  26.2 °C 75.0 °F /  23.9 °C 30.06in /  1017.8hPa SE 1.0mph /  1.6km/h 2.0mph /  3.2km/h 87% 0.00in /  0mm
21:03 78.9 °F /  26.1 °C 75.1 °F /  23.9 °C 30.06in /  1017.8hPa SE 1.0mph /  1.6km/h 2.0mph /  3.2km/h 88% 0.00in /  0mm
21:08 78.6 °F /  25.9 °C 75.1 °F /  23.9 °C 30.06in /  1017.8hPa SE 1.0mph /  1.6km/h 2.0mph /  3.2km/h 89% 0.00in /  0mm
21:13 78.3 °F /  25.7 °C 74.8 °F /  23.8 °C 30.07in /  1018.2hPa SE 2.0mph /  3.2km/h 2.0mph /  3.2km/h 89% 0.00in /  0mm
21:18 78.1 °F /  25.6 °C 74.9 °F /  23.8 °C 30.07in /  1018.2hPa SE 1.0mph /  1.6km/h 1.0mph /  1.6km/h 90% 0.00in /  0mm
21:23 77.8 °F /  25.4 °C 74.6 °F /  23.7 °C 30.07in /  1018.2hPa SSE 1.0mph /  1.6km/h 1.0mph /  1.6km/h 90% 0.00in /  0mm
21:28 77.6 °F /  25.3 °C 74.8 °F /  23.8 °C 30.07in /  1018.2hPa SE 2.0mph /  3.2km/h 2.0mph /  3.2km/h 91% 0.00in /  0mm
21:33 77.4 °F /  25.2 °C 74.6 °F /  23.7 °C 30.07in /  1018.2hPa SE 2.0mph /  3.2km/h 4.0mph /  6.4km/h 91% 0.00in /  0mm
21:38 77.2 °F /  25.1 °C 74.4 °F /  23.6 °C 30.07in /  1018.2hPa SE 1.0mph /  1.6km/h 3.0mph /  4.8km/h 91% 0.00in /  0mm
21:43 77.0 °F /  25 °C 74.2 °F /  23.4 °C 30.07in /  1018.2hPa SE 2.0mph /  3.2km/h 3.0mph /  4.8km/h 91% 0.00in /  0mm
21:48 76.9 °F /  24.9 °C 74.1 °F /  23.4 °C 30.07in /  1018.2hPa SE 1.0mph /  1.6km/h 2.0mph /  3.2km/h 91% 0.00in /  0mm
21:53 76.7 °F /  24.8 °C 74.2 °F /  23.4 °C 30.07in /  1018.2hPa ESE 2.0mph /  3.2km/h 2.0mph /  3.2km/h 92% 0.00in /  0mm
21:58 76.5 °F /  24.7 °C 74.0 °F /  23.3 °C 30.07in /  1018.2hPa SE 3.0mph /  4.8km/h 4.0mph /  6.4km/h 92% 0.00in /  0mm
22:03 76.4 °F /  24.7 °C 73.9 °F /  23.3 °C 30.08in /  1018.5hPa SE 2.0mph /  3.2km/h 3.0mph /  4.8km/h 92% 0.00in /  0mm
22:08 76.4 °F /  24.7 °C 73.9 °F /  23.3 °C 30.08in /  1018.5hPa SE 2.0mph /  3.2km/h 3.0mph /  4.8km/h 92% 0.00in /  0mm
22:13 76.3 °F /  24.6 °C 73.8 °F /  23.2 °C 30.08in /  1018.5hPa SE 3.0mph /  4.8km/h 4.0mph /  6.4km/h 92% 0.00in /  0mm
22:18 76.3 °F /  24.6 °C 73.8 °F /  23.2 °C 30.08in /  1018.5hPa SE 4.0mph /  6.4km/h 4.0mph /  6.4km/h 92% 0.00in /  0mm
22:23 76.3 °F /  24.6 °C 73.5 °F /  23.1 °C 30.08in /  1018.5hPa SE 3.0mph /  4.8km/h 3.0mph /  4.8km/h 91% 0.00in /  0mm
22:28 76.4 °F /  24.7 °C 73.6 °F /  23.1 °C 30.09in /  1018.8hPa SE 1.0mph /  1.6km/h 4.0mph /  6.4km/h 91% 0.00in /  0mm
22:33 76.4 °F /  24.7 °C 73.6 °F /  23.1 °C 30.09in /  1018.8hPa Calm   1.0mph /  1.6km/h 91% 0.00in /  0mm
22:38 76.2 °F /  24.6 °C 73.4 °F /  23 °C 30.09in /  1018.8hPa Calm     91% 0.00in /  0mm
22:44 76.1 °F /  24.5 °C 73.3 °F /  22.9 °C 30.09in /  1018.8hPa Calm     91% 0.00in /  0mm
22:49 76.0 °F /  24.4 °C 73.2 °F /  22.9 °C 30.09in /  1018.8hPa ESE 1.0mph /  1.6km/h 1.0mph /  1.6km/h 91% 0.00in /  0mm
22:54 75.9 °F /  24.4 °C 73.1 °F /  22.8 °C 30.09in /  1018.8hPa Calm   1.0mph /  1.6km/h 91% 0.00in /  0mm
22:59 75.9 °F /  24.4 °C 73.1 °F /  22.8 °C 30.10in /  1019.2hPa Calm   1.0mph /  1.6km/h 91% 0.00in /  0mm
23:04 75.8 °F /  24.3 °C 73.0 °F /  22.8 °C 30.10in /  1019.2hPa ESE 1.0mph /  1.6km/h 2.0mph /  3.2km/h 91% 0.00in /  0mm
23:09 76.0 °F /  24.4 °C 73.2 °F /  22.9 °C 30.10in /  1019.2hPa SE 3.0mph /  4.8km/h 3.0mph /  4.8km/h 91% 0.00in /  0mm
23:14 76.0 °F /  24.4 °C 73.2 °F /  22.9 °C 30.10in /  1019.2hPa ESE 4.0mph /  6.4km/h 4.0mph /  6.4km/h 91% 0.00in /  0mm
23:19 76.1 °F /  24.5 °C 73.3 °F /  22.9 °C 30.10in /  1019.2hPa ESE 3.0mph /  4.8km/h 3.0mph /  4.8km/h 91% 0.00in /  0mm
23:24 76.1 °F /  24.5 °C 73.3 °F /  22.9 °C 30.10in /  1019.2hPa SE 3.0mph /  4.8km/h 4.0mph /  6.4km/h 91% 0.00in /  0mm
23:29 76.3 °F /  24.6 °C 73.5 °F /  23.1 °C 30.10in /  1019.2hPa SSE 2.0mph /  3.2km/h 4.0mph /  6.4km/h 91% 0.00in /  0mm
23:34 76.2 °F /  24.6 °C 73.4 °F /  23 °C 30.10in /  1019.2hPa SSE 3.0mph /  4.8km/h 3.0mph /  4.8km/h 91% 0.00in /  0mm
23:39 76.0 °F /  24.4 °C 73.2 °F /  22.9 °C 30.10in /  1019.2hPa SSE 3.0mph /  4.8km/h 3.0mph /  4.8km/h 91% 0.00in /  0mm
23:44 75.8 °F /  24.3 °C 73.0 °F /  22.8 °C 30.11in /  1019.5hPa SSE 3.0mph /  4.8km/h 4.0mph /  6.4km/h 91% 0.00in /  0mm
23:49 75.7 °F /  24.3 °C 72.9 °F /  22.7 °C 30.11in /  1019.5hPa SSE 3.0mph /  4.8km/h 4.0mph /  6.4km/h 91% 0.00in /  0mm
23:54 75.7 °F /  24.3 °C 72.9 °F /  22.7 °C 30.10in /  1019.2hPa SSE 2.0mph /  3.2km/h 5.0mph /  8km/h 91% 0.00in /  0mm
23:59 75.8 °F /  24.3 °C 73.0 °F /  22.8 °C 30.10in /  1019.2hPa SSE 3.0mph /  4.8km/h 4.0mph /  6.4km/h 91% 0.00in /  0mm
Compliments of Weather Underground